X  Luk Metar data        LYNI Nis Airport
Temperatur
22°C Temperatur
18°C Duggpunkt
78% Fugtighed



Vind
3 MPT
6 KM/T
1 M/S
3 KNOB



120°
ØSØ
Nuværende forhold

Mostly Clear Mest klar
Tryk 1013 (hPa) - 29.92 (inHg)
Sigt 6 (mil) - 10 (km)
Lufthavn
Lufthavnskode LYNI

Lokation: Nis Airport
Afstand: 14 (mi)

Metar:
METAR LYNI 240000Z 12003KT 100V160 CAVOK 22/18 Q1014 NOSIG

Tid: 24-07-2024 02:00 CEST